sensor_id;sensor_type;location;lat;lon;timestamp;P1;durP1;ratioP1;P2;durP2;ratioP2
67272;SDS011;54190;49.770;9.250;2022-09-09T00:00:40;5.57;;;2.60;;
67272;SDS011;54190;49.770;9.250;2022-09-09T00:03:17;5.40;;;2.80;;
67272;SDS011;54190;49.770;9.250;2022-09-09T00:05:52;6.10;;;2.63;;
67272;SDS011;54190;49.770;9.250;2022-09-09T00:11:28;4.87;;;2.20;;
67272;SDS011;54190;49.770;9.250;2022-09-09T00:14:08;7.67;;;2.63;;
67272;SDS011;54190;49.770;9.250;2022-09-09T00:16:44;4.70;;;2.20;;
67272;SDS011;54190;49.770;9.250;2022-09-09T00:21:50;7.27;;;1.93;;
67272;SDS011;54190;49.770;9.250;2022-09-09T00:27:07;4.47;;;2.10;;
67272;SDS011;54190;49.770;9.250;2022-09-09T00:29:41;7.90;;;2.40;;
67272;SDS011;54190;49.770;9.250;2022-09-09T00:32:31;6.80;;;2.03;;
67272;SDS011;54190;49.770;9.250;2022-09-09T00:35:10;2.87;;;1.80;;
67272;SDS011;54190;49.770;9.250;2022-09-09T00:38:04;7.30;;;2.30;;
67272;SDS011;54190;49.770;9.250;2022-09-09T00:41:28;4.90;;;1.97;;
67272;SDS011;54190;49.770;9.250;2022-09-09T00:44:00;5.37;;;2.10;;
67272;SDS011;54190;49.770;9.250;2022-09-09T00:46:46;3.40;;;1.90;;
67272;SDS011;54190;49.770;9.250;2022-09-09T00:57:31;4.90;;;2.37;;
67272;SDS011;54190;49.770;9.250;2022-09-09T01:11:17;9.37;;;2.10;;
67272;SDS011;54190;49.770;9.250;2022-09-09T01:16:46;4.53;;;1.80;;
67272;SDS011;54190;49.770;9.250;2022-09-09T01:19:18;3.93;;;2.30;;
67272;SDS011;54190;49.770;9.250;2022-09-09T01:21:56;6.33;;;2.03;;
67272;SDS011;54190;49.770;9.250;2022-09-09T01:24:38;4.17;;;1.93;;
67272;SDS011;54190;49.770;9.250;2022-09-09T01:27:46;5.13;;;2.40;;
67272;SDS011;54190;49.770;9.250;2022-09-09T01:30:16;5.00;;;3.03;;
67272;SDS011;54190;49.770;9.250;2022-09-09T01:35:17;4.20;;;1.90;;
67272;SDS011;54190;49.770;9.250;2022-09-09T01:37:59;8.70;;;2.60;;
67272;SDS011;54190;49.770;9.250;2022-09-09T01:40:25;4.50;;;2.13;;
67272;SDS011;54190;49.770;9.250;2022-09-09T01:42:53;5.20;;;2.33;;
67272;SDS011;54190;49.770;9.250;2022-09-09T01:45:19;5.83;;;2.30;;
67272;SDS011;54190;49.770;9.250;2022-09-09T01:47:47;3.83;;;1.80;;
67272;SDS011;54190;49.770;9.250;2022-09-09T01:50:18;4.47;;;2.60;;
67272;SDS011;54190;49.770;9.250;2022-09-09T01:52:46;3.90;;;1.90;;
67272;SDS011;54190;49.770;9.250;2022-09-09T01:55:25;5.00;;;2.27;;
67272;SDS011;54190;49.770;9.250;2022-09-09T02:01:10;7.73;;;2.43;;
67272;SDS011;54190;49.770;9.250;2022-09-09T02:03:53;6.27;;;2.60;;
67272;SDS011;54190;49.770;9.250;2022-09-09T02:09:13;6.70;;;2.23;;
67272;SDS011;54190;49.770;9.250;2022-09-09T02:11:44;4.73;;;2.10;;
67272;SDS011;54190;49.770;9.250;2022-09-09T02:14:22;4.13;;;2.00;;
67272;SDS011;54190;49.770;9.250;2022-09-09T02:19:23;4.33;;;2.30;;
67272;SDS011;54190;49.770;9.250;2022-09-09T02:22:07;4.20;;;2.10;;
67272;SDS011;54190;49.770;9.250;2022-09-09T02:24:35;4.00;;;2.13;;
67272;SDS011;54190;49.770;9.250;2022-09-09T02:27:11;7.60;;;2.53;;
67272;SDS011;54190;49.770;9.250;2022-09-09T02:29:40;4.27;;;2.27;;
67272;SDS011;54190;49.770;9.250;2022-09-09T02:32:10;4.50;;;2.50;;
67272;SDS011;54190;49.770;9.250;2022-09-09T02:34:40;11.00;;;2.63;;
67272;SDS011;54190;49.770;9.250;2022-09-09T02:37:10;5.20;;;2.50;;
67272;SDS011;54190;49.770;9.250;2022-09-09T02:39:40;6.20;;;2.30;;
67272;SDS011;54190;49.770;9.250;2022-09-09T02:42:09;5.47;;;2.40;;
67272;SDS011;54190;49.770;9.250;2022-09-09T02:44:35;5.73;;;2.67;;
67272;SDS011;54190;49.770;9.250;2022-09-09T02:55:46;6.07;;;2.60;;
67272;SDS011;54190;49.770;9.250;2022-09-09T02:58:18;5.83;;;2.40;;
67272;SDS011;54190;49.770;9.250;2022-09-09T03:00:52;6.77;;;2.40;;
67272;SDS011;54190;49.770;9.250;2022-09-09T03:03:19;7.30;;;2.50;;
67272;SDS011;54190;49.770;9.250;2022-09-09T03:05:48;8.07;;;2.17;;
67272;SDS011;54190;49.770;9.250;2022-09-09T03:08:15;6.07;;;2.33;;
67272;SDS011;54190;49.770;9.250;2022-09-09T03:10:42;6.53;;;2.43;;
67272;SDS011;54190;49.770;9.250;2022-09-09T03:13:10;5.60;;;2.27;;
67272;SDS011;54190;49.770;9.250;2022-09-09T03:15:38;4.70;;;2.33;;
67272;SDS011;54190;49.770;9.250;2022-09-09T03:18:07;4.50;;;2.37;;
67272;SDS011;54190;49.770;9.250;2022-09-09T03:20:33;6.57;;;2.37;;
67272;SDS011;54190;49.770;9.250;2022-09-09T03:22:59;5.73;;;2.70;;
67272;SDS011;54190;49.770;9.250;2022-09-09T03:25:25;6.37;;;2.30;;
67272;SDS011;54190;49.770;9.250;2022-09-09T03:27:53;5.60;;;2.50;;
67272;SDS011;54190;49.770;9.250;2022-09-09T03:30:22;8.77;;;2.53;;
67272;SDS011;54190;49.770;9.250;2022-09-09T03:32:49;5.50;;;2.23;;
67272;SDS011;54190;49.770;9.250;2022-09-09T03:35:15;4.97;;;2.80;;
67272;SDS011;54190;49.770;9.250;2022-09-09T03:37:42;4.80;;;2.37;;
67272;SDS011;54190;49.770;9.250;2022-09-09T03:40:09;8.37;;;2.30;;
67272;SDS011;54190;49.770;9.250;2022-09-09T03:42:36;6.23;;;2.60;;
67272;SDS011;54190;49.770;9.250;2022-09-09T03:45:03;6.63;;;2.77;;
67272;SDS011;54190;49.770;9.250;2022-09-09T03:47:35;9.00;;;2.80;;
67272;SDS011;54190;49.770;9.250;2022-09-09T03:50:05;4.77;;;2.27;;
67272;SDS011;54190;49.770;9.250;2022-09-09T03:52:38;6.30;;;2.20;;
67272;SDS011;54190;49.770;9.250;2022-09-09T03:55:11;11.93;;;2.90;;
67272;SDS011;54190;49.770;9.250;2022-09-09T03:57:36;9.80;;;2.40;;
67272;SDS011;54190;49.770;9.250;2022-09-09T04:00:06;3.70;;;2.40;;
67272;SDS011;54190;49.770;9.250;2022-09-09T04:02:41;5.83;;;2.60;;
67272;SDS011;54190;49.770;9.250;2022-09-09T04:05:09;3.43;;;1.90;;
67272;SDS011;54190;49.770;9.250;2022-09-09T04:07:36;6.93;;;2.63;;
67272;SDS011;54190;49.770;9.250;2022-09-09T04:10:02;4.50;;;2.10;;
67272;SDS011;54190;49.770;9.250;2022-09-09T04:12:29;5.90;;;2.10;;
67272;SDS011;54190;49.770;9.250;2022-09-09T04:14:55;4.63;;;1.93;;
67272;SDS011;54190;49.770;9.250;2022-09-09T04:17:21;7.00;;;2.87;;
67272;SDS011;54190;49.770;9.250;2022-09-09T04:19:47;5.53;;;2.27;;
67272;SDS011;54190;49.770;9.250;2022-09-09T04:22:14;3.80;;;2.67;;
67272;SDS011;54190;49.770;9.250;2022-09-09T04:24:41;4.23;;;2.37;;
67272;SDS011;54190;49.770;9.250;2022-09-09T04:27:07;3.97;;;2.30;;
67272;SDS011;54190;49.770;9.250;2022-09-09T04:29:34;5.50;;;2.07;;
67272;SDS011;54190;49.770;9.250;2022-09-09T04:32:00;6.20;;;2.73;;
67272;SDS011;54190;49.770;9.250;2022-09-09T04:34:31;5.57;;;2.37;;
67272;SDS011;54190;49.770;9.250;2022-09-09T04:36:58;6.60;;;2.63;;
67272;SDS011;54190;49.770;9.250;2022-09-09T04:39:26;5.00;;;2.27;;
67272;SDS011;54190;49.770;9.250;2022-09-09T04:41:52;5.17;;;2.10;;
67272;SDS011;54190;49.770;9.250;2022-09-09T04:44:20;5.40;;;2.17;;
67272;SDS011;54190;49.770;9.250;2022-09-09T04:46:46;3.70;;;2.00;;
67272;SDS011;54190;49.770;9.250;2022-09-09T04:49:12;4.23;;;2.00;;
67272;SDS011;54190;49.770;9.250;2022-09-09T04:51:38;10.90;;;2.27;;
67272;SDS011;54190;49.770;9.250;2022-09-09T04:54:04;4.10;;;2.47;;
67272;SDS011;54190;49.770;9.250;2022-09-09T04:56:31;4.33;;;2.30;;
67272;SDS011;54190;49.770;9.250;2022-09-09T04:58:57;5.63;;;2.10;;
67272;SDS011;54190;49.770;9.250;2022-09-09T05:01:34;8.93;;;2.40;;
67272;SDS011;54190;49.770;9.250;2022-09-09T05:04:03;7.90;;;2.47;;
67272;SDS011;54190;49.770;9.250;2022-09-09T05:06:31;2.70;;;2.03;;
67272;SDS011;54190;49.770;9.250;2022-09-09T05:08:58;8.97;;;2.20;;
67272;SDS011;54190;49.770;9.250;2022-09-09T05:11:28;9.70;;;2.60;;
67272;SDS011;54190;49.770;9.250;2022-09-09T05:14:00;7.40;;;2.40;;
67272;SDS011;54190;49.770;9.250;2022-09-09T05:16:28;5.30;;;2.40;;
67272;SDS011;54190;49.770;9.250;2022-09-09T05:18:54;6.57;;;2.30;;
67272;SDS011;54190;49.770;9.250;2022-09-09T05:21:21;8.67;;;2.17;;
67272;SDS011;54190;49.770;9.250;2022-09-09T05:23:48;3.47;;;1.73;;
67272;SDS011;54190;49.770;9.250;2022-09-09T05:26:17;5.13;;;2.30;;
67272;SDS011;54190;49.770;9.250;2022-09-09T05:28:47;8.10;;;2.10;;
67272;SDS011;54190;49.770;9.250;2022-09-09T05:31:13;4.40;;;1.90;;
67272;SDS011;54190;49.770;9.250;2022-09-09T05:33:42;5.33;;;2.67;;
67272;SDS011;54190;49.770;9.250;2022-09-09T05:36:19;4.93;;;2.23;;
67272;SDS011;54190;49.770;9.250;2022-09-09T05:38:49;4.60;;;2.17;;
67272;SDS011;54190;49.770;9.250;2022-09-09T05:41:16;4.60;;;2.60;;
67272;SDS011;54190;49.770;9.250;2022-09-09T05:43:44;4.13;;;2.03;;
67272;SDS011;54190;49.770;9.250;2022-09-09T05:46:12;4.60;;;2.00;;
67272;SDS011;54190;49.770;9.250;2022-09-09T05:48:47;4.67;;;1.93;;
67272;SDS011;54190;49.770;9.250;2022-09-09T05:51:17;3.63;;;1.93;;
67272;SDS011;54190;49.770;9.250;2022-09-09T05:53:46;6.93;;;2.10;;
67272;SDS011;54190;49.770;9.250;2022-09-09T05:56:14;3.50;;;1.60;;
67272;SDS011;54190;49.770;9.250;2022-09-09T05:58:41;3.90;;;1.83;;
67272;SDS011;54190;49.770;9.250;2022-09-09T06:01:16;3.20;;;1.50;;
67272;SDS011;54190;49.770;9.250;2022-09-09T06:03:44;4.13;;;1.87;;
67272;SDS011;54190;49.770;9.250;2022-09-09T06:06:13;3.17;;;1.40;;
67272;SDS011;54190;49.770;9.250;2022-09-09T06:08:41;4.50;;;2.03;;
67272;SDS011;54190;49.770;9.250;2022-09-09T06:11:13;3.23;;;1.60;;
67272;SDS011;54190;49.770;9.250;2022-09-09T06:13:41;2.20;;;1.20;;
67272;SDS011;54190;49.770;9.250;2022-09-09T06:16:18;5.77;;;2.23;;
67272;SDS011;54190;49.770;9.250;2022-09-09T06:18:44;4.27;;;1.47;;
67272;SDS011;54190;49.770;9.250;2022-09-09T06:21:20;2.70;;;1.10;;
67272;SDS011;54190;49.770;9.250;2022-09-09T06:23:49;4.80;;;1.20;;
67272;SDS011;54190;49.770;9.250;2022-09-09T06:26:20;3.60;;;1.40;;
67272;SDS011;54190;49.770;9.250;2022-09-09T06:28:49;2.70;;;1.23;;
67272;SDS011;54190;49.770;9.250;2022-09-09T06:31:17;4.20;;;1.30;;
67272;SDS011;54190;49.770;9.250;2022-09-09T06:33:48;4.60;;;1.60;;
67272;SDS011;54190;49.770;9.250;2022-09-09T06:36:16;3.93;;;1.53;;
67272;SDS011;54190;49.770;9.250;2022-09-09T06:38:44;3.97;;;1.27;;
67272;SDS011;54190;49.770;9.250;2022-09-09T06:41:13;2.27;;;1.30;;
67272;SDS011;54190;49.770;9.250;2022-09-09T06:43:42;2.90;;;1.27;;
67272;SDS011;54190;49.770;9.250;2022-09-09T06:46:19;4.00;;;1.20;;
67272;SDS011;54190;49.770;9.250;2022-09-09T06:48:53;2.90;;;1.40;;
67272;SDS011;54190;49.770;9.250;2022-09-09T06:51:32;3.40;;;1.40;;
67272;SDS011;54190;49.770;9.250;2022-09-09T06:54:01;3.70;;;1.30;;
67272;SDS011;54190;49.770;9.250;2022-09-09T06:56:33;5.43;;;1.40;;
67272;SDS011;54190;49.770;9.250;2022-09-09T06:59:03;8.60;;;1.67;;
67272;SDS011;54190;49.770;9.250;2022-09-09T07:01:33;5.07;;;1.90;;
67272;SDS011;54190;49.770;9.250;2022-09-09T07:04:07;4.57;;;1.53;;
67272;SDS011;54190;49.770;9.250;2022-09-09T07:06:39;5.90;;;1.80;;
67272;SDS011;54190;49.770;9.250;2022-09-09T07:09:10;4.93;;;1.43;;
67272;SDS011;54190;49.770;9.250;2022-09-09T07:11:40;5.40;;;1.60;;
67272;SDS011;54190;49.770;9.250;2022-09-09T07:14:07;3.47;;;1.40;;
67272;SDS011;54190;49.770;9.250;2022-09-09T07:16:34;7.00;;;1.57;;
67272;SDS011;54190;49.770;9.250;2022-09-09T07:19:03;3.70;;;1.60;;
67272;SDS011;54190;49.770;9.250;2022-09-09T07:21:30;6.93;;;1.63;;
67272;SDS011;54190;49.770;9.250;2022-09-09T07:23:57;2.87;;;1.40;;
67272;SDS011;54190;49.770;9.250;2022-09-09T07:26:24;4.40;;;1.50;;
67272;SDS011;54190;49.770;9.250;2022-09-09T07:28:52;3.10;;;1.40;;
67272;SDS011;54190;49.770;9.250;2022-09-09T07:31:22;3.57;;;1.60;;
67272;SDS011;54190;49.770;9.250;2022-09-09T07:33:53;2.90;;;1.30;;
67272;SDS011;54190;49.770;9.250;2022-09-09T07:36:24;4.83;;;1.83;;
67272;SDS011;54190;49.770;9.250;2022-09-09T07:38:56;4.33;;;1.60;;
67272;SDS011;54190;49.770;9.250;2022-09-09T07:41:41;4.37;;;1.30;;
67272;SDS011;54190;49.770;9.250;2022-09-09T07:44:09;6.07;;;2.00;;
67272;SDS011;54190;49.770;9.250;2022-09-09T07:46:39;5.47;;;1.50;;
67272;SDS011;54190;49.770;9.250;2022-09-09T07:49:07;4.17;;;1.60;;
67272;SDS011;54190;49.770;9.250;2022-09-09T07:51:35;3.90;;;1.60;;
67272;SDS011;54190;49.770;9.250;2022-09-09T07:54:03;5.63;;;1.83;;
67272;SDS011;54190;49.770;9.250;2022-09-09T07:56:32;3.17;;;1.80;;
67272;SDS011;54190;49.770;9.250;2022-09-09T07:58:58;3.47;;;1.70;;
67272;SDS011;54190;49.770;9.250;2022-09-09T08:01:29;3.93;;;1.60;;
67272;SDS011;54190;49.770;9.250;2022-09-09T08:04:02;7.07;;;1.87;;
67272;SDS011;54190;49.770;9.250;2022-09-09T08:06:31;7.60;;;2.20;;
67272;SDS011;54190;49.770;9.250;2022-09-09T08:08:59;4.83;;;1.73;;
67272;SDS011;54190;49.770;9.250;2022-09-09T08:11:26;5.77;;;2.20;;
67272;SDS011;54190;49.770;9.250;2022-09-09T08:13:54;7.10;;;2.00;;
67272;SDS011;54190;49.770;9.250;2022-09-09T08:16:24;5.00;;;2.10;;
67272;SDS011;54190;49.770;9.250;2022-09-09T08:18:53;4.70;;;1.80;;
67272;SDS011;54190;49.770;9.250;2022-09-09T08:21:21;8.20;;;2.57;;
67272;SDS011;54190;49.770;9.250;2022-09-09T08:23:50;7.03;;;1.73;;
67272;SDS011;54190;49.770;9.250;2022-09-09T08:26:28;7.67;;;2.43;;
67272;SDS011;54190;49.770;9.250;2022-09-09T08:28:56;4.17;;;1.67;;
67272;SDS011;54190;49.770;9.250;2022-09-09T08:31:29;4.57;;;2.00;;
67272;SDS011;54190;49.770;9.250;2022-09-09T08:34:00;9.90;;;2.27;;
67272;SDS011;54190;49.770;9.250;2022-09-09T08:36:30;4.40;;;2.07;;
67272;SDS011;54190;49.770;9.250;2022-09-09T08:39:07;4.77;;;1.87;;
67272;SDS011;54190;49.770;9.250;2022-09-09T08:44:07;5.20;;;2.30;;
67272;SDS011;54190;49.770;9.250;2022-09-09T08:46:46;5.30;;;1.93;;
67272;SDS011;54190;49.770;9.250;2022-09-09T08:49:24;4.13;;;1.87;;
67272;SDS011;54190;49.770;9.250;2022-09-09T08:51:57;6.70;;;2.00;;
67272;SDS011;54190;49.770;9.250;2022-09-09T08:54:23;6.90;;;1.80;;
67272;SDS011;54190;49.770;9.250;2022-09-09T08:56:53;5.17;;;2.10;;
67272;SDS011;54190;49.770;9.250;2022-09-09T08:59:19;5.10;;;1.90;;
67272;SDS011;54190;49.770;9.250;2022-09-09T09:01:50;5.50;;;1.83;;
67272;SDS011;54190;49.770;9.250;2022-09-09T09:07:45;7.00;;;1.80;;
67272;SDS011;54190;49.770;9.250;2022-09-09T09:13:20;5.40;;;2.10;;
67272;SDS011;54190;49.770;9.250;2022-09-09T09:16:29;13.80;;;2.10;;
67272;SDS011;54190;49.770;9.250;2022-09-09T09:18:58;6.83;;;1.83;;
67272;SDS011;54190;49.770;9.250;2022-09-09T09:21:38;14.80;;;3.60;;
67272;SDS011;54190;49.770;9.250;2022-09-09T09:27:12;5.93;;;1.80;;
67272;SDS011;54190;49.770;9.250;2022-09-09T09:29:49;6.73;;;2.10;;
67272;SDS011;54190;49.770;9.250;2022-09-09T09:32:18;6.23;;;2.40;;
67272;SDS011;54190;49.770;9.250;2022-09-09T09:34:56;8.70;;;1.80;;
67272;SDS011;54190;49.770;9.250;2022-09-09T09:37:26;8.03;;;2.37;;
67272;SDS011;54190;49.770;9.250;2022-09-09T09:45:26;7.97;;;2.30;;
67272;SDS011;54190;49.770;9.250;2022-09-09T09:48:12;4.73;;;1.60;;
67272;SDS011;54190;49.770;9.250;2022-09-09T09:50:58;7.30;;;1.67;;
67272;SDS011;54190;49.770;9.250;2022-09-09T09:53:27;7.10;;;2.00;;
67272;SDS011;54190;49.770;9.250;2022-09-09T09:58:31;7.87;;;1.70;;
67272;SDS011;54190;49.770;9.250;2022-09-09T10:01:00;3.97;;;1.30;;
67272;SDS011;54190;49.770;9.250;2022-09-09T10:03:32;4.53;;;1.50;;
67272;SDS011;54190;49.770;9.250;2022-09-09T10:06:05;3.10;;;1.33;;
67272;SDS011;54190;49.770;9.250;2022-09-09T10:08:32;4.17;;;1.70;;
67272;SDS011;54190;49.770;9.250;2022-09-09T10:11:21;3.30;;;1.50;;
67272;SDS011;54190;49.770;9.250;2022-09-09T10:14:00;3.20;;;1.70;;
67272;SDS011;54190;49.770;9.250;2022-09-09T10:19:42;4.67;;;1.80;;
67272;SDS011;54190;49.770;9.250;2022-09-09T10:22:39;8.90;;;1.80;;
67272;SDS011;54190;49.770;9.250;2022-09-09T10:27:54;8.07;;;1.63;;
67272;SDS011;54190;49.770;9.250;2022-09-09T10:33:26;4.23;;;1.57;;
67272;SDS011;54190;49.770;9.250;2022-09-09T10:36:16;5.20;;;1.73;;
67272;SDS011;54190;49.770;9.250;2022-09-09T10:38:47;5.73;;;1.80;;
67272;SDS011;54190;49.770;9.250;2022-09-09T10:41:19;4.07;;;1.60;;
67272;SDS011;54190;49.770;9.250;2022-09-09T10:52:26;3.53;;;1.40;;
67272;SDS011;54190;49.770;9.250;2022-09-09T10:55:02;5.80;;;1.77;;
67272;SDS011;54190;49.770;9.250;2022-09-09T10:57:51;5.50;;;1.70;;
67272;SDS011;54190;49.770;9.250;2022-09-09T11:02:52;4.40;;;1.67;;
67272;SDS011;54190;49.770;9.250;2022-09-09T11:05:43;8.43;;;2.27;;
67272;SDS011;54190;49.770;9.250;2022-09-09T11:08:23;8.60;;;2.37;;
67272;SDS011;54190;49.770;9.250;2022-09-09T11:10:53;13.87;;;2.30;;
67272;SDS011;54190;49.770;9.250;2022-09-09T11:16:29;9.37;;;2.00;;
67272;SDS011;54190;49.770;9.250;2022-09-09T11:19:11;7.00;;;2.30;;
67272;SDS011;54190;49.770;9.250;2022-09-09T11:21:41;7.03;;;2.00;;
67272;SDS011;54190;49.770;9.250;2022-09-09T11:24:54;4.43;;;1.80;;
67272;SDS011;54190;49.770;9.250;2022-09-09T11:27:13;6.40;;;1.93;;
67272;SDS011;54190;49.770;9.250;2022-09-09T11:32:48;6.40;;;1.60;;
67272;SDS011;54190;49.770;9.250;2022-09-09T11:35:46;3.20;;;1.23;;
67272;SDS011;54190;49.770;9.250;2022-09-09T11:41:08;3.50;;;1.40;;
67272;SDS011;54190;49.770;9.250;2022-09-09T11:43:42;3.07;;;1.33;;
67272;SDS011;54190;49.770;9.250;2022-09-09T11:46:12;4.27;;;1.40;;
67272;SDS011;54190;49.770;9.250;2022-09-09T11:48:43;3.60;;;1.40;;
67272;SDS011;54190;49.770;9.250;2022-09-09T11:53:49;3.63;;;1.30;;
67272;SDS011;54190;49.770;9.250;2022-09-09T11:58:59;6.30;;;1.67;;
67272;SDS011;54190;49.770;9.250;2022-09-09T12:04:06;4.43;;;1.50;;
67272;SDS011;54190;49.770;9.250;2022-09-09T12:06:49;3.70;;;1.40;;
67272;SDS011;54190;49.770;9.250;2022-09-09T12:12:06;5.87;;;1.67;;
67272;SDS011;54190;49.770;9.250;2022-09-09T12:19:39;8.60;;;2.00;;
67272;SDS011;54190;49.770;9.250;2022-09-09T12:22:07;2.77;;;1.27;;
67272;SDS011;54190;49.770;9.250;2022-09-09T12:33:33;4.20;;;1.60;;
67272;SDS011;54190;49.770;9.250;2022-09-09T12:36:00;5.40;;;1.70;;
67272;SDS011;54190;49.770;9.250;2022-09-09T12:38:34;6.20;;;1.63;;
67272;SDS011;54190;49.770;9.250;2022-09-09T12:41:02;4.00;;;1.43;;
67272;SDS011;54190;49.770;9.250;2022-09-09T12:43:28;4.93;;;1.50;;
67272;SDS011;54190;49.770;9.250;2022-09-09T12:45:56;3.47;;;1.43;;
67272;SDS011;54190;49.770;9.250;2022-09-09T12:48:30;3.37;;;1.40;;
67272;SDS011;54190;49.770;9.250;2022-09-09T12:51:01;3.20;;;1.30;;
67272;SDS011;54190;49.770;9.250;2022-09-09T12:53:35;3.20;;;1.40;;
67272;SDS011;54190;49.770;9.250;2022-09-09T12:56:08;5.97;;;1.27;;
67272;SDS011;54190;49.770;9.250;2022-09-09T12:58:49;7.40;;;1.63;;
67272;SDS011;54190;49.770;9.250;2022-09-09T13:01:24;4.80;;;1.60;;
67272;SDS011;54190;49.770;9.250;2022-09-09T13:03:51;3.80;;;1.67;;
67272;SDS011;54190;49.770;9.250;2022-09-09T13:06:22;3.60;;;1.30;;
67272;SDS011;54190;49.770;9.250;2022-09-09T13:08:50;3.00;;;1.30;;
67272;SDS011;54190;49.770;9.250;2022-09-09T13:11:18;5.03;;;1.40;;
67272;SDS011;54190;49.770;9.250;2022-09-09T13:14:04;5.03;;;1.90;;
67272;SDS011;54190;49.770;9.250;2022-09-09T13:16:33;5.07;;;1.40;;
67272;SDS011;54190;49.770;9.250;2022-09-09T13:19:01;5.00;;;1.60;;
67272;SDS011;54190;49.770;9.250;2022-09-09T13:21:40;5.17;;;1.70;;
67272;SDS011;54190;49.770;9.250;2022-09-09T13:29:54;4.30;;;1.37;;
67272;SDS011;54190;49.770;9.250;2022-09-09T13:32:22;4.67;;;1.50;;
67272;SDS011;54190;49.770;9.250;2022-09-09T13:34:56;7.10;;;1.60;;
67272;SDS011;54190;49.770;9.250;2022-09-09T13:37:32;7.97;;;2.10;;
67272;SDS011;54190;49.770;9.250;2022-09-09T13:40:02;5.47;;;2.37;;
67272;SDS011;54190;49.770;9.250;2022-09-09T13:42:35;8.70;;;2.10;;
67272;SDS011;54190;49.770;9.250;2022-09-09T13:45:04;5.30;;;2.10;;
67272;SDS011;54190;49.770;9.250;2022-09-09T13:47:31;5.80;;;2.23;;
67272;SDS011;54190;49.770;9.250;2022-09-09T13:52:48;5.37;;;2.00;;
67272;SDS011;54190;49.770;9.250;2022-09-09T13:55:30;4.80;;;1.60;;
67272;SDS011;54190;49.770;9.250;2022-09-09T13:57:57;4.17;;;1.70;;
67272;SDS011;54190;49.770;9.250;2022-09-09T14:00:25;5.83;;;1.70;;
67272;SDS011;54190;49.770;9.250;2022-09-09T14:02:54;4.63;;;1.70;;
67272;SDS011;54190;49.770;9.250;2022-09-09T14:05:22;5.23;;;1.60;;
67272;SDS011;54190;49.770;9.250;2022-09-09T14:07:49;5.20;;;1.90;;
67272;SDS011;54190;49.770;9.250;2022-09-09T14:10:15;4.30;;;1.70;;
67272;SDS011;54190;49.770;9.250;2022-09-09T14:12:41;4.03;;;1.50;;
67272;SDS011;54190;49.770;9.250;2022-09-09T14:15:07;3.00;;;1.30;;
67272;SDS011;54190;49.770;9.250;2022-09-09T14:17:35;4.40;;;1.40;;
67272;SDS011;54190;49.770;9.250;2022-09-09T14:20:02;3.40;;;1.40;;
67272;SDS011;54190;49.770;9.250;2022-09-09T14:22:32;3.80;;;1.17;;
67272;SDS011;54190;49.770;9.250;2022-09-09T14:24:59;4.70;;;1.70;;
67272;SDS011;54190;49.770;9.250;2022-09-09T14:27:24;4.07;;;1.30;;
67272;SDS011;54190;49.770;9.250;2022-09-09T14:29:55;3.07;;;1.20;;
67272;SDS011;54190;49.770;9.250;2022-09-09T14:32:21;3.73;;;1.30;;
67272;SDS011;54190;49.770;9.250;2022-09-09T14:34:47;4.13;;;1.30;;
67272;SDS011;54190;49.770;9.250;2022-09-09T14:37:15;5.70;;;1.60;;
67272;SDS011;54190;49.770;9.250;2022-09-09T14:39:41;4.73;;;1.70;;
67272;SDS011;54190;49.770;9.250;2022-09-09T14:42:09;4.07;;;1.40;;
67272;SDS011;54190;49.770;9.250;2022-09-09T14:44:36;3.40;;;1.53;;
67272;SDS011;54190;49.770;9.250;2022-09-09T14:47:04;4.40;;;1.53;;
67272;SDS011;54190;49.770;9.250;2022-09-09T14:49:30;2.77;;;1.30;;
67272;SDS011;54190;49.770;9.250;2022-09-09T14:51:56;3.60;;;1.60;;
67272;SDS011;54190;49.770;9.250;2022-09-09T14:54:22;10.23;;;1.67;;
67272;SDS011;54190;49.770;9.250;2022-09-09T14:56:48;5.50;;;2.10;;
67272;SDS011;54190;49.770;9.250;2022-09-09T14:59:13;3.57;;;1.77;;
67272;SDS011;54190;49.770;9.250;2022-09-09T15:01:39;4.83;;;1.80;;
67272;SDS011;54190;49.770;9.250;2022-09-09T15:04:05;3.60;;;1.50;;
67272;SDS011;54190;49.770;9.250;2022-09-09T15:06:32;4.00;;;1.77;;
67272;SDS011;54190;49.770;9.250;2022-09-09T15:09:00;3.57;;;1.50;;
67272;SDS011;54190;49.770;9.250;2022-09-09T15:11:27;4.57;;;1.30;;
67272;SDS011;54190;49.770;9.250;2022-09-09T15:13:55;3.97;;;1.10;;
67272;SDS011;54190;49.770;9.250;2022-09-09T15:16:23;5.17;;;1.23;;
67272;SDS011;54190;49.770;9.250;2022-09-09T15:18:52;3.93;;;1.50;;
67272;SDS011;54190;49.770;9.250;2022-09-09T15:21:20;2.20;;;1.33;;
67272;SDS011;54190;49.770;9.250;2022-09-09T15:23:48;2.53;;;1.20;;
67272;SDS011;54190;49.770;9.250;2022-09-09T15:26:14;2.97;;;1.27;;
67272;SDS011;54190;49.770;9.250;2022-09-09T15:28:40;3.70;;;1.20;;
67272;SDS011;54190;49.770;9.250;2022-09-09T15:31:12;4.27;;;1.40;;
67272;SDS011;54190;49.770;9.250;2022-09-09T15:34:02;3.23;;;1.30;;
67272;SDS011;54190;49.770;9.250;2022-09-09T15:36:33;3.60;;;1.20;;
67272;SDS011;54190;49.770;9.250;2022-09-09T15:39:01;2.20;;;1.00;;
67272;SDS011;54190;49.770;9.250;2022-09-09T15:41:28;2.30;;;1.00;;
67272;SDS011;54190;49.770;9.250;2022-09-09T15:43:56;2.90;;;1.17;;
67272;SDS011;54190;49.770;9.250;2022-09-09T15:46:32;3.20;;;1.50;;
67272;SDS011;54190;49.770;9.250;2022-09-09T15:49:06;4.80;;;1.30;;
67272;SDS011;54190;49.770;9.250;2022-09-09T15:51:40;3.90;;;1.10;;
67272;SDS011;54190;49.770;9.250;2022-09-09T15:54:09;2.57;;;1.30;;
67272;SDS011;54190;49.770;9.250;2022-09-09T15:56:41;5.57;;;1.60;;
67272;SDS011;54190;49.770;9.250;2022-09-09T15:59:08;3.87;;;1.20;;
67272;SDS011;54190;49.770;9.250;2022-09-09T16:01:34;3.93;;;2.10;;
67272;SDS011;54190;49.770;9.250;2022-09-09T16:04:00;3.73;;;1.47;;
67272;SDS011;54190;49.770;9.250;2022-09-09T16:06:27;2.30;;;1.10;;
67272;SDS011;54190;49.770;9.250;2022-09-09T16:08:55;6.67;;;1.50;;
67272;SDS011;54190;49.770;9.250;2022-09-09T16:11:23;2.83;;;1.27;;
67272;SDS011;54190;49.770;9.250;2022-09-09T16:13:51;4.60;;;1.20;;
67272;SDS011;54190;49.770;9.250;2022-09-09T16:16:19;2.77;;;1.37;;
67272;SDS011;54190;49.770;9.250;2022-09-09T16:18:50;4.13;;;1.20;;
67272;SDS011;54190;49.770;9.250;2022-09-09T16:21:19;2.67;;;1.10;;
67272;SDS011;54190;49.770;9.250;2022-09-09T16:23:50;5.37;;;1.40;;
67272;SDS011;54190;49.770;9.250;2022-09-09T16:26:17;3.27;;;1.60;;
67272;SDS011;54190;49.770;9.250;2022-09-09T16:28:43;2.87;;;1.30;;
67272;SDS011;54190;49.770;9.250;2022-09-09T16:31:10;3.53;;;1.37;;
67272;SDS011;54190;49.770;9.250;2022-09-09T16:33:39;3.60;;;1.70;;
67272;SDS011;54190;49.770;9.250;2022-09-09T16:36:09;3.40;;;1.37;;
67272;SDS011;54190;49.770;9.250;2022-09-09T16:38:37;4.00;;;1.40;;
67272;SDS011;54190;49.770;9.250;2022-09-09T16:41:03;3.40;;;1.63;;
67272;SDS011;54190;49.770;9.250;2022-09-09T16:43:31;5.50;;;1.67;;
67272;SDS011;54190;49.770;9.250;2022-09-09T16:45:58;3.33;;;1.33;;
67272;SDS011;54190;49.770;9.250;2022-09-09T16:48:26;3.17;;;1.50;;
67272;SDS011;54190;49.770;9.250;2022-09-09T16:51:00;3.40;;;1.10;;
67272;SDS011;54190;49.770;9.250;2022-09-09T16:53:31;2.57;;;1.23;;
67272;SDS011;54190;49.770;9.250;2022-09-09T16:55:57;4.00;;;1.13;;
67272;SDS011;54190;49.770;9.250;2022-09-09T16:58:23;2.03;;;1.23;;
67272;SDS011;54190;49.770;9.250;2022-09-09T17:00:49;3.40;;;1.37;;
67272;SDS011;54190;49.770;9.250;2022-09-09T17:03:16;2.47;;;1.10;;
67272;SDS011;54190;49.770;9.250;2022-09-09T17:05:42;2.50;;;1.43;;
67272;SDS011;54190;49.770;9.250;2022-09-09T17:08:09;4.07;;;1.30;;
67272;SDS011;54190;49.770;9.250;2022-09-09T17:10:39;1.80;;;1.10;;
67272;SDS011;54190;49.770;9.250;2022-09-09T17:13:07;3.53;;;1.37;;
67272;SDS011;54190;49.770;9.250;2022-09-09T17:15:32;4.23;;;1.30;;
67272;SDS011;54190;49.770;9.250;2022-09-09T17:18:00;3.17;;;1.27;;
67272;SDS011;54190;49.770;9.250;2022-09-09T17:20:26;2.90;;;1.30;;
67272;SDS011;54190;49.770;9.250;2022-09-09T17:22:51;2.67;;;1.13;;